Time;durP1;ratioP1;P1;durP2;ratioP2;P2;SDS_P1;SDS_P2;PMS_P1;PMS_P2;Temp;Humidity;BMP_temperature;BMP_pressure;BME280_temperature;BME280_humidity;BME280_pressure;Samples;Min_cycle;Max_cycle;Signal;HPM_P1;HPM_P2
2021/06/27 00:01:56;;;;;;;11.48;8.23;;;;;;;;;;3583423;40;20040;-58
2021/06/27 00:04:22;;;;;;;9.88;8.77;;;;;;;;;;3573234;40;20051;-58
2021/06/27 00:06:47;;;;;;;8.70;7.90;;;;;;;;;;3582618;40;20029;-58
2021/06/27 00:09:13;;;;;;;10.98;8.38;;;;;;;;;;3582874;40;20560;-58
2021/06/27 00:11:38;;;;;;;10.65;8.85;;;;;;;;;;3583567;40;20033;-58
2021/06/27 00:14:04;;;;;;;10.88;9.75;;;;;;;;;;3584078;40;20306;-57
2021/06/27 00:16:31;;;;;;;11.30;9.57;;;;;;;;;;3583312;40;20040;-56
2021/06/27 00:18:57;;;;;;;10.25;8.63;;;;;;;;;;3584445;40;20033;-58
2021/06/27 00:21:24;;;;;;;9.52;8.60;;;;;;;;;;3583910;40;20032;-58
2021/06/27 00:23:50;;;;;;;10.40;9.30;;;;;;;;;;3577061;40;20044;-57
2021/06/27 00:26:17;;;;;;;10.15;9.13;;;;;;;;;;3580963;40;20026;-58
2021/06/27 00:28:43;;;;;;;9.25;8.35;;;;;;;;;;3576469;40;20280;-56
2021/06/27 00:31:10;;;;;;;9.43;8.52;;;;;;;;;;3583033;40;20045;-58
2021/06/27 00:33:36;;;;;;;10.90;9.80;;;;;;;;;;3584868;40;20040;-58
2021/06/27 00:36:03;;;;;;;11.10;9.77;;;;;;;;;;3584180;40;20029;-57
2021/06/27 00:38:28;;;;;;;11.18;10.10;;;;;;;;;;3582368;40;20063;-57
2021/06/27 00:40:54;;;;;;;9.63;8.55;;;;;;;;;;3582636;40;20025;-57
2021/06/27 00:43:19;;;;;;;15.43;9.93;;;;;;;;;;3574802;40;20464;-56
2021/06/27 00:45:45;;;;;;;11.95;9.35;;;;;;;;;;3584344;40;20049;-58
2021/06/27 00:48:10;;;;;;;10.23;9.20;;;;;;;;;;3581662;40;20055;-58
2021/06/27 00:50:48;;;;;;;10.57;9.48;;;;;;;;;;3582192;40;20399;-55
2021/06/27 00:53:14;;;;;;;9.80;8.80;;;;;;;;;;3584127;40;20036;-57
2021/06/27 00:55:41;;;;;;;10.52;9.40;;;;;;;;;;3583491;40;20080;-57
2021/06/27 00:58:07;;;;;;;10.32;9.23;;;;;;;;;;3583574;40;20036;-57
2021/06/27 01:00:37;;;;;;;10.15;9.15;;;;;;;;;;3583112;40;20032;-57
2021/06/27 01:03:03;;;;;;;12.35;9.80;;;;;;;;;;3582207;40;20073;-58
2021/06/27 01:05:36;;;;;;;11.98;10.43;;;;;;;;;;3582899;40;20033;-56
2021/06/27 01:08:02;;;;;;;13.18;10.07;;;;;;;;;;3582765;40;20375;-57
2021/06/27 01:10:28;;;;;;;9.52;8.20;;;;;;;;;;3581627;40;20122;-58
2021/06/27 01:12:54;;;;;;;10.48;8.90;;;;;;;;;;3583599;40;20050;-58
2021/06/27 01:15:20;;;;;;;11.10;9.32;;;;;;;;;;3584351;40;20155;-57
2021/06/27 01:17:49;;;;;;;13.65;9.15;;;;;;;;;;3584504;40;20032;-57
2021/06/27 01:20:21;;;;;;;11.25;8.75;;;;;;;;;;3575390;40;20045;-57
2021/06/27 01:22:47;;;;;;;12.63;9.35;;;;;;;;;;3583051;40;20677;-58
2021/06/27 01:25:16;;;;;;;11.55;9.63;;;;;;;;;;3584165;40;20025;-58
2021/06/27 01:27:42;;;;;;;10.73;9.63;;;;;;;;;;3582913;40;20033;-57
2021/06/27 01:30:11;;;;;;;14.95;13.43;;;;;;;;;;3584162;40;20041;-58
2021/06/27 01:32:43;;;;;;;14.60;13.07;;;;;;;;;;3582261;40;20063;-57
2021/06/27 01:35:10;;;;;;;12.40;11.10;;;;;;;;;;3582873;40;20051;-58
2021/06/27 01:37:36;;;;;;;12.60;10.45;;;;;;;;;;3584538;40;20024;-58
2021/06/27 01:40:04;;;;;;;15.00;10.52;;;;;;;;;;3583802;40;20042;-59
2021/06/27 01:42:30;;;;;;;11.55;10.30;;;;;;;;;;3581642;40;20040;-58
2021/06/27 01:44:55;;;;;;;11.85;10.65;;;;;;;;;;3581780;40;20063;-56
2021/06/27 01:47:28;;;;;;;12.07;10.02;;;;;;;;;;3580771;40;20033;-57
2021/06/27 01:49:54;;;;;;;14.80;9.93;;;;;;;;;;3582753;40;20036;-57
2021/06/27 01:52:19;;;;;;;17.42;11.20;;;;;;;;;;3582146;40;20059;-57
2021/06/27 01:54:45;;;;;;;11.50;10.32;;;;;;;;;;3582897;40;20080;-56
2021/06/27 01:57:10;;;;;;;11.75;10.55;;;;;;;;;;3582835;40;20118;-58
2021/06/27 01:59:36;;;;;;;12.45;11.13;;;;;;;;;;3583521;40;20035;-56
2021/06/27 02:02:01;;;;;;;14.85;11.93;;;;;;;;;;3581811;40;20040;-58
2021/06/27 02:04:27;;;;;;;13.60;11.68;;;;;;;;;;3580850;40;20123;-58
2021/06/27 02:06:53;;;;;;;12.77;10.90;;;;;;;;;;3583610;40;20033;-58
2021/06/27 02:09:18;;;;;;;15.95;11.82;;;;;;;;;;3583264;40;20101;-58
2021/06/27 02:11:44;;;;;;;15.75;11.05;;;;;;;;;;3582300;40;20264;-55
2021/06/27 02:14:10;;;;;;;11.55;10.32;;;;;;;;;;3577196;40;20044;-58
2021/06/27 02:16:36;;;;;;;14.35;11.25;;;;;;;;;;3579576;40;20473;-58
2021/06/27 02:19:02;;;;;;;12.48;11.27;;;;;;;;;;3581582;40;20059;-58
2021/06/27 02:21:31;;;;;;;14.55;10.32;;;;;;;;;;3583352;40;20035;-58
2021/06/27 02:23:57;;;;;;;10.60;9.50;;;;;;;;;;3582479;40;20041;-59
2021/06/27 02:26:25;;;;;;;11.55;10.35;;;;;;;;;;3581939;40;20404;-59
2021/06/27 02:28:51;;;;;;;11.35;10.20;;;;;;;;;;3581507;40;20025;-59
2021/06/27 02:31:17;;;;;;;13.48;9.88;;;;;;;;;;3572879;40;20109;-59
2021/06/27 02:33:44;;;;;;;10.80;9.45;;;;;;;;;;3582779;40;20045;-59
2021/06/27 02:36:09;;;;;;;10.65;8.82;;;;;;;;;;3581722;40;20051;-58
2021/06/27 02:38:35;;;;;;;10.07;9.07;;;;;;;;;;3581868;40;20028;-60
2021/06/27 02:41:02;;;;;;;11.00;9.90;;;;;;;;;;3584160;40;20095;-60
2021/06/27 02:43:28;;;;;;;11.80;10.15;;;;;;;;;;3580894;40;20048;-59
2021/06/27 02:45:54;;;;;;;14.18;10.52;;;;;;;;;;3581000;40;20041;-59
2021/06/27 02:48:19;;;;;;;10.75;9.75;;;;;;;;;;3580662;40;20044;-59
2021/06/27 02:50:45;;;;;;;11.82;10.10;;;;;;;;;;3582958;40;20037;-59
2021/06/27 02:53:11;;;;;;;13.45;10.32;;;;;;;;;;3579162;40;20028;-59
2021/06/27 02:55:37;;;;;;;11.05;9.95;;;;;;;;;;3583086;40;20039;-59
2021/06/27 02:58:03;;;;;;;10.95;9.82;;;;;;;;;;3582693;40;20276;-59
2021/06/27 03:00:29;;;;;;;13.88;10.48;;;;;;;;;;3581343;40;20117;-59
2021/06/27 03:02:59;;;;;;;12.18;10.25;;;;;;;;;;3582905;40;20613;-59
2021/06/27 03:05:25;;;;;;;12.43;10.50;;;;;;;;;;3571962;40;20033;-59
2021/06/27 03:07:50;;;;;;;11.63;10.43;;;;;;;;;;3583974;40;20037;-59
2021/06/27 03:10:18;;;;;;;10.80;9.68;;;;;;;;;;3581776;40;20047;-59
2021/06/27 03:12:47;;;;;;;10.93;9.73;;;;;;;;;;3583288;40;20484;-59
2021/06/27 03:15:15;;;;;;;11.18;10.07;;;;;;;;;;3585269;40;20040;-60
2021/06/27 03:17:40;;;;;;;10.85;9.38;;;;;;;;;;3584525;40;20051;-59
2021/06/27 03:20:08;;;;;;;10.48;9.30;;;;;;;;;;3581851;40;20029;-59
2021/06/27 03:22:34;;;;;;;11.13;9.93;;;;;;;;;;3582802;40;20277;-59
2021/06/27 03:25:00;;;;;;;9.82;8.73;;;;;;;;;;3584600;40;20048;-59
2021/06/27 03:27:25;;;;;;;10.60;9.52;;;;;;;;;;3582496;40;20029;-60
2021/06/27 03:29:51;;;;;;;13.35;9.43;;;;;;;;;;3575792;40;20036;-59
2021/06/27 03:32:17;;;;;;;12.35;9.65;;;;;;;;;;3583310;40;20090;-59
2021/06/27 03:34:42;;;;;;;11.43;8.68;;;;;;;;;;3583342;40;20306;-59
2021/06/27 03:37:08;;;;;;;11.05;9.95;;;;;;;;;;3582991;40;20854;-59
2021/06/27 03:39:33;;;;;;;15.20;9.43;;;;;;;;;;3584829;40;20722;-59
2021/06/27 03:41:59;;;;;;;13.05;8.15;;;;;;;;;;3583192;40;20399;-59
2021/06/27 03:44:26;;;;;;;10.10;8.38;;;;;;;;;;3581630;40;20481;-58
2021/06/27 03:46:53;;;;;;;9.80;8.75;;;;;;;;;;3584366;40;20033;-58
2021/06/27 03:49:19;;;;;;;10.05;8.80;;;;;;;;;;3584018;40;20157;-59
2021/06/27 03:51:45;;;;;;;8.68;7.88;;;;;;;;;;3584344;40;20052;-59
2021/06/27 03:54:11;;;;;;;10.18;8.75;;;;;;;;;;3583030;40;20099;-59
2021/06/27 03:56:37;;;;;;;9.75;8.85;;;;;;;;;;3583425;40;20052;-59
2021/06/27 03:59:04;;;;;;;9.30;8.40;;;;;;;;;;3583217;40;20303;-59
2021/06/27 04:01:30;;;;;;;9.45;8.43;;;;;;;;;;3575236;40;20348;-59
2021/06/27 04:03:55;;;;;;;11.45;8.70;;;;;;;;;;3564015;40;20521;-60
2021/06/27 04:06:20;;;;;;;10.52;8.00;;;;;;;;;;3581094;40;20043;-60
2021/06/27 04:08:46;;;;;;;15.63;8.43;;;;;;;;;;3583927;40;20077;-60
2021/06/27 04:11:11;;;;;;;8.98;8.00;;;;;;;;;;3581902;40;20047;-59
2021/06/27 04:13:37;;;;;;;9.65;8.75;;;;;;;;;;3583821;40;20040;-60
2021/06/27 04:16:04;;;;;;;8.57;7.75;;;;;;;;;;3581197;40;20036;-60
2021/06/27 04:18:30;;;;;;;9.65;8.65;;;;;;;;;;3581920;40;20029;-58
2021/06/27 04:20:57;;;;;;;8.80;8.00;;;;;;;;;;3576023;40;20044;-58
2021/06/27 04:23:24;;;;;;;12.13;8.75;;;;;;;;;;3576837;40;20037;-58
2021/06/27 04:25:49;;;;;;;17.63;8.68;;;;;;;;;;3582476;40;20032;-58
2021/06/27 04:28:15;;;;;;;11.60;8.80;;;;;;;;;;3582318;40;20033;-58
2021/06/27 04:30:41;;;;;;;11.38;8.80;;;;;;;;;;3577436;40;20048;-57
2021/06/27 04:33:07;;;;;;;13.73;8.65;;;;;;;;;;3583265;40;20040;-59
2021/06/27 04:35:35;;;;;;;9.70;7.75;;;;;;;;;;3584573;40;20109;-58
2021/06/27 04:38:04;;;;;;;9.00;8.07;;;;;;;;;;3581274;40;20034;-58
2021/06/27 04:40:30;;;;;;;8.18;7.30;;;;;;;;;;3583031;40;20076;-59
2021/06/27 04:42:55;;;;;;;10.57;8.02;;;;;;;;;;3584162;40;20539;-57
2021/06/27 04:45:21;;;;;;;9.25;7.35;;;;;;;;;;3584184;40;20267;-59
2021/06/27 04:47:47;;;;;;;9.63;7.80;;;;;;;;;;3584062;40;20052;-58
2021/06/27 04:50:13;;;;;;;8.55;7.70;;;;;;;;;;3581016;40;20378;-59
2021/06/27 04:52:38;;;;;;;7.60;6.90;;;;;;;;;;3582560;40;20052;-59
2021/06/27 04:55:06;;;;;;;8.40;7.55;;;;;;;;;;3584149;40;20065;-59
2021/06/27 04:57:32;;;;;;;9.18;8.27;;;;;;;;;;3582711;40;20401;-59
2021/06/27 04:59:58;;;;;;;9.23;7.45;;;;;;;;;;3580568;40;20029;-59
2021/06/27 05:02:23;;;;;;;10.27;7.72;;;;;;;;;;3583648;40;20044;-60
2021/06/27 05:04:49;;;;;;;7.95;7.15;;;;;;;;;;3583266;40;20260;-59
2021/06/27 05:07:14;;;;;;;8.45;7.65;;;;;;;;;;3582689;40;20037;-60
2021/06/27 05:09:40;;;;;;;8.80;7.75;;;;;;;;;;3581604;40;20036;-59
2021/06/27 05:12:06;;;;;;;9.15;7.20;;;;;;;;;;3581198;40;20048;-59
2021/06/27 05:14:31;;;;;;;9.50;7.68;;;;;;;;;;3582111;40;20040;-60
2021/06/27 05:16:58;;;;;;;8.43;7.53;;;;;;;;;;3582414;40;20021;-60
2021/06/27 05:19:23;;;;;;;7.75;6.85;;;;;;;;;;3582759;40;20029;-60
2021/06/27 05:21:49;;;;;;;13.52;6.85;;;;;;;;;;3582121;40;20425;-60
2021/06/27 05:24:14;;;;;;;9.75;7.28;;;;;;;;;;3580950;40;20032;-59
2021/06/27 05:26:40;;;;;;;9.93;7.35;;;;;;;;;;3583820;40;20032;-59
2021/06/27 05:29:05;;;;;;;13.18;6.93;;;;;;;;;;3583551;40;20088;-59
2021/06/27 05:31:36;;;;;;;9.25;7.25;;;;;;;;;;3582582;40;20072;-59
2021/06/27 05:34:01;;;;;;;8.02;7.15;;;;;;;;;;3581853;40;20029;-60
2021/06/27 05:36:27;;;;;;;9.68;7.47;;;;;;;;;;3580574;40;20064;-60
2021/06/27 05:38:52;;;;;;;8.25;7.32;;;;;;;;;;3583381;40;20080;-60
2021/06/27 05:41:18;;;;;;;10.77;6.90;;;;;;;;;;3584829;40;20114;-59
2021/06/27 05:43:43;;;;;;;13.07;6.78;;;;;;;;;;3583227;40;20017;-59
2021/06/27 05:46:08;;;;;;;8.95;7.30;;;;;;;;;;3582941;40;20041;-59
2021/06/27 05:48:34;;;;;;;9.05;7.80;;;;;;;;;;3583677;40;20129;-59
2021/06/27 05:50:59;;;;;;;8.05;6.90;;;;;;;;;;3582693;40;20066;-59
2021/06/27 05:53:25;;;;;;;9.82;7.10;;;;;;;;;;3581750;40;20455;-59
2021/06/27 05:56:08;;;;;;;8.18;7.18;;;;;;;;;;3583018;40;20340;-59
2021/06/27 05:58:39;;;;;;;11.50;7.65;;;;;;;;;;3583477;40;20384;-60
2021/06/27 06:01:06;;;;;;;8.05;7.35;;;;;;;;;;3583121;40;20075;-59
2021/06/27 06:03:32;;;;;;;9.35;7.90;;;;;;;;;;3583629;40;20043;-59
2021/06/27 06:05:57;;;;;;;8.63;7.70;;;;;;;;;;3581694;40;20041;-59
2021/06/27 06:08:23;;;;;;;9.90;7.13;;;;;;;;;;3583579;40;20028;-59
2021/06/27 06:10:48;;;;;;;10.38;7.07;;;;;;;;;;3583057;40;20589;-59
2021/06/27 06:13:14;;;;;;;7.47;6.68;;;;;;;;;;3583866;40;20025;-60
2021/06/27 06:15:39;;;;;;;9.15;7.45;;;;;;;;;;3582961;40;20040;-59
2021/06/27 06:18:05;;;;;;;9.18;7.43;;;;;;;;;;3580428;40;20047;-59
2021/06/27 06:20:30;;;;;;;11.63;7.40;;;;;;;;;;3580754;40;20072;-59
2021/06/27 06:22:56;;;;;;;8.30;7.50;;;;;;;;;;3581666;40;20039;-59
2021/06/27 06:25:21;;;;;;;8.27;7.30;;;;;;;;;;3583420;40;20036;-60
2021/06/27 06:27:47;;;;;;;9.38;7.28;;;;;;;;;;3580312;40;20056;-60
2021/06/27 06:30:13;;;;;;;8.20;7.40;;;;;;;;;;3581187;40;20029;-61
2021/06/27 06:32:38;;;;;;;10.18;7.30;;;;;;;;;;3582624;40;20091;-58
2021/06/27 06:35:05;;;;;;;8.43;6.95;;;;;;;;;;3582205;40;20029;-58
2021/06/27 06:37:30;;;;;;;7.68;6.82;;;;;;;;;;3581736;40;20037;-60
2021/06/27 06:39:55;;;;;;;8.52;7.63;;;;;;;;;;3583231;40;20044;-60
2021/06/27 06:42:21;;;;;;;8.00;7.15;;;;;;;;;;3583474;40;20482;-59
2021/06/27 06:44:46;;;;;;;8.18;7.20;;;;;;;;;;3574244;40;20035;-59
2021/06/27 06:47:12;;;;;;;8.10;7.30;;;;;;;;;;3581162;40;20053;-59
2021/06/27 06:49:37;;;;;;;7.70;6.90;;;;;;;;;;3582743;40;20056;-59
2021/06/27 06:52:03;;;;;;;9.55;7.32;;;;;;;;;;3582710;40;20072;-59
2021/06/27 06:54:28;;;;;;;8.07;7.28;;;;;;;;;;3582117;40;20117;-58
2021/06/27 06:56:55;;;;;;;10.73;7.45;;;;;;;;;;3583167;40;20068;-59
2021/06/27 06:59:20;;;;;;;9.45;7.90;;;;;;;;;;3580842;40;20085;-58
2021/06/27 07:01:46;;;;;;;8.30;7.50;;;;;;;;;;3581646;40;20380;-59
2021/06/27 07:04:11;;;;;;;8.10;7.30;;;;;;;;;;3574414;40;20881;-59
2021/06/27 07:06:37;;;;;;;7.85;7.03;;;;;;;;;;3582323;40;20054;-59
2021/06/27 07:09:02;;;;;;;8.30;7.38;;;;;;;;;;3582238;40;20048;-57
2021/06/27 07:11:28;;;;;;;36.85;7.95;;;;;;;;;;3581493;40;20033;-57
2021/06/27 07:13:54;;;;;;;7.47;6.60;;;;;;;;;;3580965;40;20036;-59
2021/06/27 07:16:19;;;;;;;7.43;6.72;;;;;;;;;;3580681;40;20040;-57
2021/06/27 07:18:44;;;;;;;8.85;7.03;;;;;;;;;;3582242;40;20133;-58
2021/06/27 07:21:10;;;;;;;8.52;7.35;;;;;;;;;;3581665;40;20426;-57
2021/06/27 07:23:35;;;;;;;8.75;7.95;;;;;;;;;;3581734;40;20088;-59
2021/06/27 07:26:01;;;;;;;8.48;7.68;;;;;;;;;;3581748;40;20047;-58
2021/06/27 07:28:26;;;;;;;10.15;7.35;;;;;;;;;;3583130;40;20532;-57
2021/06/27 07:30:52;;;;;;;8.68;7.78;;;;;;;;;;3582622;40;20048;-58
2021/06/27 07:33:18;;;;;;;8.63;7.10;;;;;;;;;;3581124;40;20037;-57
2021/06/27 07:35:44;;;;;;;9.23;7.35;;;;;;;;;;3580006;40;20368;-57
2021/06/27 07:38:09;;;;;;;7.90;7.10;;;;;;;;;;3582197;40;20073;-59
2021/06/27 07:40:35;;;;;;;10.30;7.55;;;;;;;;;;3581497;40;20029;-58
2021/06/27 07:43:00;;;;;;;9.88;7.65;;;;;;;;;;3581512;40;20044;-58
2021/06/27 07:45:26;;;;;;;8.57;7.65;;;;;;;;;;3579869;40;20093;-58
2021/06/27 07:47:51;;;;;;;8.65;7.65;;;;;;;;;;3583438;40;20045;-59
2021/06/27 07:50:17;;;;;;;9.45;7.15;;;;;;;;;;3583838;40;20063;-59
2021/06/27 07:52:42;;;;;;;9.82;7.82;;;;;;;;;;3583256;40;20037;-59
2021/06/27 07:55:09;;;;;;;11.40;7.70;;;;;;;;;;3580381;40;20060;-58
2021/06/27 07:57:34;;;;;;;8.52;7.63;;;;;;;;;;3584903;40;20162;-59
2021/06/27 08:00:00;;;;;;;7.97;7.18;;;;;;;;;;3585858;40;20367;-59
2021/06/27 08:02:26;;;;;;;8.88;7.13;;;;;;;;;;3583635;40;20037;-59
2021/06/27 08:04:51;;;;;;;9.23;7.45;;;;;;;;;;3583637;40;20047;-59
2021/06/27 08:07:17;;;;;;;8.40;7.57;;;;;;;;;;3583976;40;20037;-59
2021/06/27 08:09:42;;;;;;;9.68;7.57;;;;;;;;;;3584056;40;20139;-59
2021/06/27 08:12:08;;;;;;;8.13;7.32;;;;;;;;;;3583123;40;20057;-59
2021/06/27 08:14:33;;;;;;;9.52;7.38;;;;;;;;;;3583818;40;20145;-59
2021/06/27 08:16:59;;;;;;;8.30;7.50;;;;;;;;;;3580394;40;20037;-58
2021/06/27 08:19:24;;;;;;;9.32;6.97;;;;;;;;;;3583364;40;20337;-57
2021/06/27 08:21:50;;;;;;;9.02;6.50;;;;;;;;;;3582494;40;20311;-58
2021/06/27 08:24:15;;;;;;;8.32;7.10;;;;;;;;;;3584266;40;20307;-58
2021/06/27 08:26:41;;;;;;;8.20;6.95;;;;;;;;;;3582378;40;20040;-57
2021/06/27 08:29:06;;;;;;;6.82;6.18;;;;;;;;;;3582429;40;20288;-58
2021/06/27 08:31:32;;;;;;;9.07;7.10;;;;;;;;;;3575444;40;20127;-58
2021/06/27 08:33:57;;;;;;;7.70;6.95;;;;;;;;;;3581849;40;20043;-59
2021/06/27 08:36:23;;;;;;;9.65;7.40;;;;;;;;;;3583500;40;20469;-60
2021/06/27 08:38:49;;;;;;;7.78;7.07;;;;;;;;;;3581147;40;20025;-58
2021/06/27 08:41:15;;;;;;;7.65;6.95;;;;;;;;;;3584255;40;20044;-58
2021/06/27 08:43:42;;;;;;;8.95;6.75;;;;;;;;;;3583801;40;20044;-59
2021/06/27 08:46:08;;;;;;;7.90;7.07;;;;;;;;;;3583577;40;20040;-59
2021/06/27 08:48:36;;;;;;;7.40;6.70;;;;;;;;;;3574510;40;20049;-58
2021/06/27 08:51:02;;;;;;;7.15;6.45;;;;;;;;;;3580748;40;20376;-58
2021/06/27 08:53:29;;;;;;;7.38;6.68;;;;;;;;;;3582759;40;20295;-59
2021/06/27 08:56:06;;;;;;;6.63;5.97;;;;;;;;;;3584674;40;20051;-59
2021/06/27 08:58:33;;;;;;;9.20;6.75;;;;;;;;;;3584954;40;20047;-58
2021/06/27 09:00:59;;;;;;;7.75;6.90;;;;;;;;;;3580644;40;20033;-58
2021/06/27 09:03:24;;;;;;;7.40;6.25;;;;;;;;;;3583283;40;20039;-59
2021/06/27 09:05:50;;;;;;;8.52;6.85;;;;;;;;;;3582554;40;20129;-59
2021/06/27 09:08:18;;;;;;;7.00;6.30;;;;;;;;;;3584594;40;20455;-58
2021/06/27 09:10:45;;;;;;;6.68;5.72;;;;;;;;;;3583116;40;20094;-58
2021/06/27 09:13:11;;;;;;;6.88;5.70;;;;;;;;;;3582879;40;20384;-58
2021/06/27 09:15:50;;;;;;;9.20;6.13;;;;;;;;;;3582817;40;20065;-59
2021/06/27 09:18:16;;;;;;;7.75;6.38;;;;;;;;;;3580759;40;20029;-58
2021/06/27 09:20:46;;;;;;;6.75;6.05;;;;;;;;;;3581470;40;20091;-59
2021/06/27 09:23:14;;;;;;;8.43;6.28;;;;;;;;;;3582789;40;20040;-59
2021/06/27 09:25:41;;;;;;;7.85;6.90;;;;;;;;;;3581172;40;20062;-59
2021/06/27 09:28:13;;;;;;;8.88;6.28;;;;;;;;;;3582365;40;20186;-59
2021/06/27 09:31:08;;;;;;;7.50;6.15;;;;;;;;;;3574687;40;20044;-58
2021/06/27 09:33:33;;;;;;;9.70;5.50;;;;;;;;;;3573249;40;20143;-59
2021/06/27 09:36:06;;;;;;;6.50;5.35;;;;;;;;;;3582364;40;20044;-58
2021/06/27 09:38:49;;;;;;;7.00;6.18;;;;;;;;;;3582803;40;20135;-59
2021/06/27 09:41:18;;;;;;;9.05;5.57;;;;;;;;;;3582021;40;20049;-59
2021/06/27 09:43:56;;;;;;;6.57;5.25;;;;;;;;;;3583789;40;20048;-59
2021/06/27 09:46:37;;;;;;;6.53;5.30;;;;;;;;;;3581317;40;20331;-59
2021/06/27 09:49:06;;;;;;;6.90;5.63;;;;;;;;;;3584469;40;20138;-60
2021/06/27 09:51:34;;;;;;;5.25;4.47;;;;;;;;;;3583604;40;20068;-60
2021/06/27 09:53:59;;;;;;;5.47;4.70;;;;;;;;;;3583284;40;20032;-60
2021/06/27 09:56:26;;;;;;;6.28;4.60;;;;;;;;;;3571671;40;20048;-60
2021/06/27 09:58:58;;;;;;;7.95;5.03;;;;;;;;;;3580682;40;20072;-60
2021/06/27 10:01:25;;;;;;;;;;;;;;;;;;3584719;40;20033;-60
2021/06/27 10:03:54;;;;;;;7.70;4.47;;;;;;;;;;3582692;40;19939;-60
2021/06/27 10:06:21;;;;;;;6.75;4.65;;;;;;;;;;3581402;40;20387;-60
2021/06/27 10:08:47;;;;;;;5.78;4.70;;;;;;;;;;3581316;40;20044;-60
2021/06/27 10:11:18;;;;;;;6.90;4.75;;;;;;;;;;3581257;40;20533;-60
2021/06/27 10:13:48;;;;;;;6.22;3.95;;;;;;;;;;3583227;40;20033;-59
2021/06/27 10:16:29;;;;;;;8.05;5.03;;;;;;;;;;3572605;40;20068;-60
2021/06/27 10:18:55;;;;;;;8.15;5.40;;;;;;;;;;3583348;40;20040;-60
2021/06/27 10:21:22;;;;;;;5.38;4.43;;;;;;;;;;3583105;40;20050;-59
2021/06/27 10:23:49;;;;;;;6.05;4.53;;;;;;;;;;3582763;40;20163;-60
2021/06/27 10:26:15;;;;;;;7.00;4.25;;;;;;;;;;3583855;40;20041;-60
2021/06/27 10:28:42;;;;;;;9.23;4.25;;;;;;;;;;3583967;40;20029;-61
2021/06/27 10:31:11;;;;;;;5.43;4.05;;;;;;;;;;3583170;40;20076;-61
2021/06/27 10:33:38;;;;;;;6.00;3.97;;;;;;;;;;3583368;40;20103;-60
2021/06/27 10:36:04;;;;;;;5.38;3.55;;;;;;;;;;3581504;40;20441;-59
2021/06/27 10:38:32;;;;;;;6.07;3.40;;;;;;;;;;3581548;40;20045;-60
2021/06/27 10:41:00;;;;;;;4.53;3.70;;;;;;;;;;3580950;40;20316;-60
2021/06/27 10:44:05;;;;;;;6.22;3.63;;;;;;;;;;3582493;40;20033;-60
2021/06/27 10:46:48;;;;;;;5.57;3.95;;;;;;;;;;3582821;40;20048;-60
2021/06/27 10:49:29;;;;;;;5.50;3.53;;;;;;;;;;3582292;40;20048;-59
2021/06/27 10:52:00;;;;;;;8.48;4.00;;;;;;;;;;3582026;40;20028;-59
2021/06/27 10:54:27;;;;;;;5.00;3.83;;;;;;;;;;3584235;40;20291;-58
2021/06/27 10:57:05;;;;;;;4.60;3.50;;;;;;;;;;3584673;40;20080;-60
2021/06/27 10:59:40;;;;;;;6.03;4.50;;;;;;;;;;3576540;40;20069;-60
2021/06/27 11:02:31;;;;;;;5.13;3.88;;;;;;;;;;3574787;40;20141;-58
2021/06/27 11:05:28;;;;;;;6.32;5.50;;;;;;;;;;3582134;40;20077;-59
2021/06/27 11:07:55;;;;;;;4.97;3.83;;;;;;;;;;3582890;40;20352;-58
2021/06/27 11:10:21;;;;;;;4.40;3.65;;;;;;;;;;3582724;40;20055;-59
2021/06/27 11:12:58;;;;;;;5.38;3.63;;;;;;;;;;3581604;40;20380;-59
2021/06/27 11:15:29;;;;;;;5.68;3.38;;;;;;;;;;3575298;40;20141;-58
2021/06/27 11:17:57;;;;;;;5.53;3.75;;;;;;;;;;3580983;40;20039;-57
2021/06/27 11:20:24;;;;;;;6.43;3.63;;;;;;;;;;3582679;40;20048;-57
2021/06/27 11:22:51;;;;;;;4.47;3.60;;;;;;;;;;3582316;40;20126;-57
2021/06/27 11:25:43;;;;;;;4.72;3.53;;;;;;;;;;3581021;40;20081;-59
2021/06/27 11:28:17;;;;;;;5.30;3.72;;;;;;;;;;3583344;40;20032;-59
2021/06/27 11:30:44;;;;;;;5.13;3.80;;;;;;;;;;3582891;40;20056;-60
2021/06/27 11:33:21;;;;;;;4.30;3.22;;;;;;;;;;3583532;40;20287;-60
2021/06/27 11:35:51;;;;;;;4.38;3.33;;;;;;;;;;3582414;40;20322;-59
2021/06/27 11:38:38;;;;;;;;;;;;;;;;;;3584172;40;20044;-59
2021/06/27 11:41:25;;;;;;;4.50;3.38;;;;;;;;;;3583725;40;20184;-60
2021/06/27 11:43:56;;;;;;;7.90;3.80;;;;;;;;;;3584231;40;20040;-59
2021/06/27 11:46:34;;;;;;;4.47;3.42;;;;;;;;;;3572528;40;20040;-58
2021/06/27 11:49:08;;;;;;;4.85;4.22;;;;;;;;;;3582441;40;20045;-58
2021/06/27 11:52:00;;;;;;;4.50;3.20;;;;;;;;;;3573672;40;20033;-59
2021/06/27 11:54:29;;;;;;;4.30;3.25;;;;;;;;;;3580448;40;20464;-59
2021/06/27 11:56:56;;;;;;;8.90;3.85;;;;;;;;;;3576823;40;20047;-57
2021/06/27 11:59:28;;;;;;;4.80;3.47;;;;;;;;;;3582749;40;20048;-57
2021/06/27 12:02:07;;;;;;;4.82;3.63;;;;;;;;;;3583856;40;20076;-58
2021/06/27 12:05:03;;;;;;;5.45;4.03;;;;;;;;;;3584494;40;20028;-59
2021/06/27 12:07:34;;;;;;;5.43;4.57;;;;;;;;;;3574602;40;20042;-59
2021/06/27 12:10:05;;;;;;;4.88;3.80;;;;;;;;;;3582853;40;20040;-59
2021/06/27 12:12:53;;;;;;;4.00;3.35;;;;;;;;;;3583604;40;20886;-59
2021/06/27 12:15:19;;;;;;;3.90;3.30;;;;;;;;;;3583292;40;20260;-59
2021/06/27 12:17:47;;;;;;;9.35;3.45;;;;;;;;;;3582181;40;20036;-58
2021/06/27 12:20:14;;;;;;;4.93;3.65;;;;;;;;;;3582846;40;20029;-58
2021/06/27 12:23:07;;;;;;;4.07;3.35;;;;;;;;;;3582272;40;20062;-60
2021/06/27 12:25:47;;;;;;;3.92;3.13;;;;;;;;;;3581345;40;20052;-60
2021/06/27 12:28:37;;;;;;;4.70;3.88;;;;;;;;;;3582273;40;20039;-59
2021/06/27 12:31:18;;;;;;;4.82;3.28;;;;;;;;;;3583049;40;20051;-59
2021/06/27 12:33:46;;;;;;;4.80;3.85;;;;;;;;;;3583538;40;20029;-58
2021/06/27 12:36:14;;;;;;;4.55;3.67;;;;;;;;;;3574973;40;20025;-56
2021/06/27 12:38:46;;;;;;;6.25;3.92;;;;;;;;;;3582566;40;20037;-58
2021/06/27 12:41:43;;;;;;;4.60;3.78;;;;;;;;;;3580797;40;20138;-57
2021/06/27 12:44:12;;;;;;;4.50;3.33;;;;;;;;;;3579513;40;20056;-59
2021/06/27 12:46:42;;;;;;;8.35;3.70;;;;;;;;;;3583614;40;20640;-59
2021/06/27 12:49:28;;;;;;;6.70;3.72;;;;;;;;;;3583251;40;20056;-59
2021/06/27 12:51:57;;;;;;;4.15;3.70;;;;;;;;;;3582705;40;20040;-58
2021/06/27 12:54:22;;;;;;;4.75;3.42;;;;;;;;;;3582440;40;20048;-57
2021/06/27 12:56:59;;;;;;;5.20;3.38;;;;;;;;;;3584518;40;20047;-58
2021/06/27 12:59:36;;;;;;;6.22;3.25;;;;;;;;;;3582883;40;20025;-57
2021/06/27 13:02:04;;;;;;;4.78;2.80;;;;;;;;;;3582715;40;20037;-59
2021/06/27 13:04:32;;;;;;;4.22;3.25;;;;;;;;;;3581487;40;20048;-57
2021/06/27 13:07:04;;;;;;;5.43;3.55;;;;;;;;;;3581846;40;20492;-58
2021/06/27 13:09:31;;;;;;;7.43;4.28;;;;;;;;;;3584335;40;20073;-58
2021/06/27 13:12:13;;;;;;;5.93;3.80;;;;;;;;;;3582439;40;20076;-58
2021/06/27 13:14:42;;;;;;;4.22;3.22;;;;;;;;;;3574285;40;20047;-59
2021/06/27 13:17:11;;;;;;;4.28;3.05;;;;;;;;;;3583810;40;20072;-58
2021/06/27 13:19:38;;;;;;;4.03;2.92;;;;;;;;;;3582867;40;20028;-58
2021/06/27 13:22:15;;;;;;;4.70;2.85;;;;;;;;;;3582217;40;20037;-58
2021/06/27 13:24:56;;;;;;;5.95;3.00;;;;;;;;;;3583210;40;20036;-58
2021/06/27 13:27:22;;;;;;;4.93;2.92;;;;;;;;;;3583664;40;20033;-58
2021/06/27 13:30:08;;;;;;;4.63;3.08;;;;;;;;;;3582559;40;20457;-58
2021/06/27 13:32:33;;;;;;;5.30;2.90;;;;;;;;;;3584062;40;20245;-59
2021/06/27 13:34:59;;;;;;;3.80;3.00;;;;;;;;;;3576947;40;20035;-59
2021/06/27 13:37:24;;;;;;;4.65;3.25;;;;;;;;;;3583748;40;20407;-59
2021/06/27 13:39:50;;;;;;;4.45;3.10;;;;;;;;;;3582113;40;20021;-58
2021/06/27 13:42:16;;;;;;;3.97;2.90;;;;;;;;;;3583234;40;20310;-58
2021/06/27 13:45:03;;;;;;;3.60;2.90;;;;;;;;;;3574281;40;20096;-58
2021/06/27 13:47:29;;;;;;;4.55;2.88;;;;;;;;;;3581299;40;20806;-58
2021/06/27 13:49:54;;;;;;;3.97;2.55;;;;;;;;;;3582999;40;20094;-59
2021/06/27 13:52:20;;;;;;;5.90;3.22;;;;;;;;;;3583044;40;20037;-58
2021/06/27 13:54:45;;;;;;;5.45;3.47;;;;;;;;;;3583032;40;20044;-59
2021/06/27 13:57:10;;;;;;;4.75;3.38;;;;;;;;;;3583146;40;20035;-57
2021/06/27 13:59:36;;;;;;;4.18;3.15;;;;;;;;;;3583121;40;20273;-59
2021/06/27 14:02:02;;;;;;;3.72;2.88;;;;;;;;;;3583480;40;20585;-59
2021/06/27 14:04:27;;;;;;;4.53;3.30;;;;;;;;;;3582974;40;20145;-59
2021/06/27 14:06:52;;;;;;;3.70;2.80;;;;;;;;;;3581802;40;20106;-58
2021/06/27 14:09:19;;;;;;;5.40;3.20;;;;;;;;;;3581462;40;20048;-58
2021/06/27 14:11:44;;;;;;;6.50;3.60;;;;;;;;;;3582414;40;20393;-58
2021/06/27 14:14:10;;;;;;;3.90;2.72;;;;;;;;;;3573409;40;20029;-58
2021/06/27 14:16:37;;;;;;;5.07;3.22;;;;;;;;;;3583190;40;20029;-59
2021/06/27 14:19:03;;;;;;;4.43;3.50;;;;;;;;;;3581652;40;20107;-58
2021/06/27 14:21:29;;;;;;;3.65;2.92;;;;;;;;;;3582259;40;20056;-59
2021/06/27 14:23:55;;;;;;;4.38;3.10;;;;;;;;;;3581645;40;20029;-59
2021/06/27 14:26:20;;;;;;;7.70;3.28;;;;;;;;;;3584075;40;20036;-59
2021/06/27 14:28:46;;;;;;;3.92;3.38;;;;;;;;;;3581021;40;20028;-59
2021/06/27 14:31:13;;;;;;;4.05;3.15;;;;;;;;;;3581789;40;20040;-59
2021/06/27 14:33:39;;;;;;;6.30;3.65;;;;;;;;;;3582900;40;20131;-58
2021/06/27 14:36:04;;;;;;;4.07;3.22;;;;;;;;;;3581891;40;20036;-59
2021/06/27 14:38:30;;;;;;;3.80;2.85;;;;;;;;;;3583355;40;20061;-59
2021/06/27 14:40:56;;;;;;;4.63;3.13;;;;;;;;;;3581014;40;20033;-59
2021/06/27 14:43:22;;;;;;;3.83;3.03;;;;;;;;;;3581729;40;20770;-58
2021/06/27 14:45:47;;;;;;;5.28;3.28;;;;;;;;;;3582770;40;20033;-59